KMNZ

Hamilton Municipal Airport

Hamilton, Texas, USA
METAR KMNZ 191855Z AUTO 20006KT 10SM CLR 33/19 A2999 RMK AO2 T03270192
Observed Flight Rules
Sep-19 @ 18:55 UTC (11 minutes ago) Visual Flight Rules
Wind Visibility Clouds
200° at 6 knots 10 miles
  • Clear skies
Temperatures Readings
Current 33°C / 91°F
Dewpoint 19°C / 66°F
Humidity 44%
Altimeter 29.99" Hg
Pressure 1016 hPa
Elevation 396
METAR KMNZ 191855Z AUTO 20006KT 10SM CLR 33/19 A2999 RMK AO2 T03270192
Observed Flight Rules
Sep-19 @ 18:55 UTC
(11 minutes ago)
VFR
Wind Visibility
200° at 6 knots 10 miles
Clouds
  • Clear skies
Temperature Dewpoint
33°C / 91°F 19°C / 66°F
Humidity Altimeter Pressure
44% 29.99" Hg 1016 hPa